Time;durP1;ratioP1;P1;durP2;ratioP2;P2;SDS_P1;SDS_P2;PMS_P1;PMS_P2;Temp;Humidity;BMP_temperature;BMP_pressure;BME280_temperature;BME280_humidity;BME280_pressure;Samples;Min_cycle;Max_cycle;Signal;HPM_P1;HPM_P2
2023/08/13 00:02:05;;;;;;;144.65;138.40;;;;;;;26.17;42.23;101600.44;5091892;28;20540;-71
2023/08/13 00:04:30;;;;;;;145.10;138.85;;;;;;;26.15;42.23;101595.22;5091826;28;20036;-71
2023/08/13 00:06:56;;;;;;;144.25;137.90;;;;;;;26.14;42.12;101598.31;5091796;28;20203;-73
2023/08/13 00:09:21;;;;;;;145.13;138.85;;;;;;;26.10;42.24;101598.16;5092674;28;20055;-71
2023/08/13 00:11:47;;;;;;;142.35;136.20;;;;;;;26.09;42.04;101600.09;5090981;28;20032;-71
2023/08/13 00:14:12;;;;;;;143.80;137.75;;;;;;;26.07;42.16;101596.03;5090615;28;20434;-71
2023/08/13 00:16:38;;;;;;;143.80;137.60;;;;;;;26.06;41.91;101594.44;5103940;28;20063;-75
2023/08/13 00:19:03;;;;;;;142.13;135.95;;;;;;;26.04;42.12;101591.16;5089504;28;20425;-70
2023/08/13 00:21:29;;;;;;;141.18;135.18;;;;;;;26.02;42.16;101596.22;5089492;28;20020;-73
2023/08/13 00:23:54;;;;;;;145.00;138.90;;;;;;;26.00;42.30;101590.19;5089603;28;20051;-71
2023/08/13 00:26:19;;;;;;;142.18;135.98;;;;;;;25.98;42.09;101573.91;5090565;28;20082;-72
2023/08/13 00:28:45;;;;;;;142.00;135.70;;;;;;;25.96;42.20;101578.16;5088401;28;20043;-72
2023/08/13 00:31:10;;;;;;;142.30;136.10;;;;;;;25.94;42.32;101580.44;5092897;28;20086;-71
2023/08/13 00:33:36;;;;;;;144.82;138.50;;;;;;;25.93;42.26;101581.56;5088639;28;20123;-71
2023/08/13 00:36:02;;;;;;;141.40;135.23;;;;;;;25.91;42.21;101579.13;5089615;28;20036;-71
2023/08/13 00:38:27;;;;;;;138.95;132.73;;;;;;;25.89;42.34;101573.09;5088879;28;20066;-74
2023/08/13 00:40:53;;;;;;;141.95;135.55;;;;;;;25.87;42.18;101578.13;5091555;28;20119;-72
2023/08/13 00:43:18;;;;;;;140.48;134.07;;;;;;;25.85;42.08;101584.00;5087975;28;20044;-72
2023/08/13 00:45:44;;;;;;;141.45;135.45;;;;;;;25.84;42.33;101584.31;5084473;28;20033;-71
2023/08/13 00:48:10;;;;;;;141.48;135.23;;;;;;;25.83;42.58;101586.25;5086673;28;20050;-71
2023/08/13 00:50:36;;;;;;;142.27;136.13;;;;;;;25.80;42.16;101583.31;5091071;28;20028;-72
2023/08/13 00:53:04;;;;;;;140.60;134.60;;;;;;;25.79;42.41;101582.50;5086328;28;20119;-71
2023/08/13 00:55:30;;;;;;;136.80;130.88;;;;;;;25.78;42.37;101582.81;5090174;28;20081;-74
2023/08/13 00:57:56;;;;;;;142.77;136.38;;;;;;;25.75;42.33;101589.00;5088246;28;20036;-72
2023/08/13 01:00:21;;;;;;;138.93;133.02;;;;;;;25.74;42.35;101587.41;5088218;28;20494;-72
2023/08/13 01:02:48;;;;;;;139.57;133.63;;;;;;;25.72;42.46;101573.06;5090170;28;20108;-72
2023/08/13 01:05:14;;;;;;;138.43;132.23;;;;;;;25.71;42.52;101582.53;5091399;28;20080;-72
2023/08/13 01:08:00;;;;;;;139.45;133.38;;;;;;;25.67;42.24;101580.38;5088367;28;20420;-72
2023/08/13 01:10:36;;;;;;;137.27;131.35;;;;;;;25.65;42.23;101587.38;5083338;28;20081;-71
2023/08/13 01:13:22;;;;;;;134.75;128.98;;;;;;;25.61;42.43;101589.19;5083648;28;20084;-72
2023/08/13 01:15:50;;;;;;;134.35;128.55;;;;;;;25.60;42.32;101588.38;5090828;28;20032;-71
2023/08/13 01:18:16;;;;;;;137.43;131.50;;;;;;;25.58;42.18;101587.88;5086621;28;20068;-75
2023/08/13 01:20:43;;;;;;;136.63;130.70;;;;;;;25.57;42.41;101589.00;5090694;28;20066;-72
2023/08/13 01:23:09;;;;;;;135.15;129.35;;;;;;;25.56;42.21;101595.69;5080442;28;20091;-71
2023/08/13 01:25:35;;;;;;;138.23;132.25;;;;;;;25.55;42.36;101598.75;5082988;28;20693;-71
2023/08/13 01:28:16;;;;;;;138.95;132.68;;;;;;;25.53;42.36;101596.34;5082141;28;20055;-72
2023/08/13 01:30:46;;;;;;;139.18;133.10;;;;;;;25.52;42.46;101593.88;5084691;28;20414;-72
2023/08/13 01:33:26;;;;;;;135.77;130.05;;;;;;;25.50;42.60;101590.63;5093193;28;20059;-71
2023/08/13 01:35:54;;;;;;;134.70;128.93;;;;;;;25.47;42.50;101592.88;5095447;28;20186;-71
2023/08/13 01:38:21;;;;;;;134.27;128.60;;;;;;;25.45;42.56;101597.97;5089363;28;20127;-72
2023/08/13 01:40:49;;;;;;;134.60;128.85;;;;;;;25.43;42.25;101588.34;5094738;28;20081;-72
2023/08/13 01:43:14;;;;;;;137.20;131.30;;;;;;;25.41;42.43;101582.31;5093603;28;20472;-73
2023/08/13 01:45:40;;;;;;;137.93;131.93;;;;;;;25.40;42.47;101588.97;5094535;28;20032;-72
2023/08/13 01:48:06;;;;;;;135.07;129.25;;;;;;;25.38;42.37;101586.56;5092160;28;20034;-72
2023/08/13 01:50:31;;;;;;;134.85;129.13;;;;;;;25.36;42.51;101583.28;5079210;28;20047;-71
2023/08/13 01:52:57;;;;;;;137.32;131.43;;;;;;;25.35;42.61;101578.91;5090788;28;20074;-73
2023/08/13 01:55:22;;;;;;;135.45;129.65;;;;;;;25.34;42.68;101576.44;5095026;28;20028;-71
2023/08/13 01:57:47;;;;;;;133.50;127.80;;;;;;;25.31;42.77;101577.09;5087607;28;20657;-72
2023/08/13 02:00:13;;;;;;;138.85;132.65;;;;;;;25.29;42.52;101576.59;5090754;28;20036;-73
2023/08/13 02:02:39;;;;;;;131.75;126.10;;;;;;;25.30;42.35;101581.00;5092791;28;20408;-72
2023/08/13 02:05:05;;;;;;;134.07;128.27;;;;;;;25.29;42.27;101576.59;5077961;28;20058;-71
2023/08/13 02:07:30;;;;;;;134.57;128.80;;;;;;;25.26;42.50;101578.06;5089872;28;20035;-72
2023/08/13 02:09:55;;;;;;;134.40;128.70;;;;;;;25.24;42.37;101572.84;5092025;28;20113;-72
2023/08/13 02:12:21;;;;;;;137.68;131.57;;;;;;;25.22;42.24;101575.16;5092386;28;20047;-73
2023/08/13 02:14:46;;;;;;;132.63;126.60;;;;;;;25.21;42.34;101579.03;5092735;28;20429;-71
2023/08/13 02:17:14;;;;;;;133.35;127.68;;;;;;;25.20;42.49;101582.09;5092166;28;20040;-71
2023/08/13 02:19:40;;;;;;;132.15;126.32;;;;;;;25.18;42.47;101573.34;5099723;27;20090;-72
2023/08/13 02:22:06;;;;;;;131.13;125.53;;;;;;;25.17;42.33;101571.69;5090036;28;20434;-73
2023/08/13 02:24:32;;;;;;;129.20;123.63;;;;;;;25.16;42.78;101572.81;5092562;28;20036;-72
2023/08/13 02:26:57;;;;;;;133.05;127.28;;;;;;;25.13;42.55;101570.69;5083789;28;20032;-73
2023/08/13 02:29:23;;;;;;;134.50;128.52;;;;;;;25.10;42.69;101565.78;5094655;28;20387;-72
2023/08/13 02:31:48;;;;;;;136.45;130.65;;;;;;;25.08;42.69;101565.31;5091922;28;20032;-73
2023/08/13 02:34:14;;;;;;;130.75;125.18;;;;;;;25.07;42.37;101569.19;5093359;28;20066;-71
2023/08/13 02:36:39;;;;;;;131.20;125.70;;;;;;;25.05;42.70;101566.78;5088098;28;20381;-74
2023/08/13 02:39:04;;;;;;;131.63;126.03;;;;;;;25.03;42.59;101567.09;5094634;28;20031;-72
2023/08/13 02:41:30;;;;;;;131.70;126.13;;;;;;;25.02;42.27;101567.38;5092748;28;20063;-72
2023/08/13 02:43:56;;;;;;;133.65;127.80;;;;;;;25.00;42.55;101564.16;5088807;28;20036;-71
2023/08/13 02:46:23;;;;;;;131.65;125.95;;;;;;;24.98;42.82;101566.41;5090831;28;20500;-71
2023/08/13 02:48:48;;;;;;;131.57;125.60;;;;;;;24.97;42.52;101565.63;5092655;28;20082;-70
2023/08/13 02:51:14;;;;;;;130.98;125.40;;;;;;;24.96;42.44;101566.72;5094960;28;20036;-72
2023/08/13 02:53:43;;;;;;;132.15;126.28;;;;;;;24.94;42.88;101563.47;5092159;28;20456;-71
2023/08/13 02:56:08;;;;;;;;;;;;;;;24.88;42.90;101558.41;5093018;28;20032;-73
2023/08/13 02:58:34;;;;;;;125.75;120.38;;;;;;;24.88;42.61;101564.75;5088661;28;19922;-71
2023/08/13 03:00:59;;;;;;;126.97;121.43;;;;;;;24.86;42.87;101557.91;5093097;28;20117;-72
2023/08/13 03:03:25;;;;;;;130.10;123.88;;;;;;;24.85;42.62;101559.88;5085571;28;20701;-71
2023/08/13 03:05:51;;;;;;;125.07;119.65;;;;;;;24.83;42.85;101562.94;5091891;28;20032;-71
2023/08/13 03:08:16;;;;;;;127.10;121.70;;;;;;;24.82;42.61;101564.09;5087496;28;20032;-71
2023/08/13 03:10:41;;;;;;;128.57;123.03;;;;;;;24.81;42.75;101556.13;5096475;28;20540;-72
2023/08/13 03:13:07;;;;;;;127.05;121.63;;;;;;;24.79;42.52;101550.91;5095960;28;20028;-72
2023/08/13 03:15:32;;;;;;;129.10;123.57;;;;;;;24.77;42.56;101555.13;5086770;28;20036;-72
2023/08/13 03:17:57;;;;;;;127.25;121.70;;;;;;;24.75;42.54;101552.69;5087355;28;22036;-73
2023/08/13 03:20:23;;;;;;;124.43;119.00;;;;;;;24.74;42.67;101547.47;5092762;28;20111;-72
2023/08/13 03:22:48;;;;;;;125.22;119.80;;;;;;;24.73;42.93;101554.13;5093722;28;20467;-72
2023/08/13 03:25:14;;;;;;;128.15;122.75;;;;;;;24.71;42.95;101554.44;5092512;28;20480;-72
2023/08/13 03:27:39;;;;;;;123.65;118.15;;;;;;;24.69;42.60;101553.13;5091772;28;20064;-73
2023/08/13 03:30:05;;;;;;;125.38;119.72;;;;;;;24.68;42.71;101554.28;5090709;28;20525;-73
2023/08/13 03:32:31;;;;;;;123.15;117.80;;;;;;;24.66;42.71;101553.78;5094064;28;20032;-70
2023/08/13 03:34:56;;;;;;;125.78;120.30;;;;;;;24.64;42.54;101548.56;5092320;28;20119;-70
2023/08/13 03:37:21;;;;;;;122.80;117.30;;;;;;;24.61;42.90;101551.97;5091176;28;20506;-72
2023/08/13 03:39:47;;;;;;;123.80;118.30;;;;;;;24.60;42.68;101548.41;5089776;28;20067;-74
2023/08/13 03:42:12;;;;;;;124.63;119.22;;;;;;;24.58;42.58;101550.66;5091752;28;20101;-73
2023/08/13 03:44:40;;;;;;;125.03;119.55;;;;;;;24.57;43.15;101553.75;5082969;28;20040;-72
2023/08/13 03:47:05;;;;;;;122.68;117.28;;;;;;;24.55;42.89;101554.06;5091828;28;20081;-71
2023/08/13 03:49:30;;;;;;;124.82;119.43;;;;;;;24.54;43.04;101548.84;5091820;28;20035;-71
2023/08/13 03:51:56;;;;;;;123.78;118.28;;;;;;;24.52;42.78;101554.72;5090799;28;20081;-71
2023/08/13 03:54:21;;;;;;;120.72;115.35;;;;;;;24.51;42.81;101560.53;5094993;28;20032;-72
2023/08/13 03:56:47;;;;;;;120.95;115.75;;;;;;;24.50;43.15;101564.44;5091235;28;20381;-73
2023/08/13 03:59:12;;;;;;;124.43;119.05;;;;;;;24.48;42.72;101561.97;5092819;28;20040;-72
2023/08/13 04:01:37;;;;;;;123.47;118.22;;;;;;;24.46;43.08;101558.72;5080227;28;20152;-72
2023/08/13 04:04:03;;;;;;;125.05;119.32;;;;;;;24.44;42.77;101555.41;5089614;28;20141;-72
2023/08/13 04:06:28;;;;;;;123.38;117.93;;;;;;;24.43;43.03;101562.09;5092580;28;20032;-71
2023/08/13 04:08:54;;;;;;;122.95;117.57;;;;;;;24.41;42.95;101556.06;5092557;28;20025;-71
2023/08/13 04:11:19;;;;;;;123.18;117.47;;;;;;;24.39;43.02;101561.91;5089432;28;20173;-72
2023/08/13 04:13:44;;;;;;;120.13;114.93;;;;;;;24.37;43.22;101569.69;5092359;28;20035;-73
2023/08/13 04:16:10;;;;;;;122.93;117.28;;;;;;;24.36;43.16;101572.75;5089151;28;20035;-73
2023/08/13 04:18:35;;;;;;;122.75;117.43;;;;;;;24.35;43.26;101579.44;5089747;28;20501;-73
2023/08/13 04:21:01;;;;;;;118.72;113.40;;;;;;;24.33;42.77;101578.94;5102149;28;20082;-71
2023/08/13 04:23:26;;;;;;;118.72;113.70;;;;;;;24.31;42.85;101576.47;5089454;28;20043;-73
2023/08/13 04:25:51;;;;;;;120.95;115.22;;;;;;;24.30;42.97;101583.13;5074764;28;20035;-74
2023/08/13 04:28:17;;;;;;;117.93;112.68;;;;;;;24.29;43.23;101576.00;5090430;28;20044;-73
2023/08/13 04:30:42;;;;;;;119.82;114.70;;;;;;;24.27;42.80;101571.91;5101902;28;20044;-72
2023/08/13 04:33:08;;;;;;;119.60;114.22;;;;;;;24.25;42.90;101565.88;5089343;28;20028;-73
2023/08/13 04:35:33;;;;;;;118.70;113.60;;;;;;;24.24;43.38;101569.75;5091608;28;20028;-72
2023/08/13 04:37:59;;;;;;;119.18;113.97;;;;;;;24.22;43.25;101572.00;5081492;28;20032;-72
2023/08/13 04:40:24;;;;;;;121.25;115.95;;;;;;;24.22;42.88;101569.25;5099481;28;20036;-72
2023/08/13 04:42:49;;;;;;;118.38;113.07;;;;;;;24.19;42.90;101571.53;5086980;28;20032;-72
2023/08/13 04:45:15;;;;;;;117.63;112.55;;;;;;;24.18;42.83;101572.66;5089482;28;20058;-73
2023/08/13 04:47:41;;;;;;;120.03;114.82;;;;;;;24.17;43.26;101573.00;5089831;28;20537;-72
2023/08/13 04:50:08;;;;;;;120.05;114.43;;;;;;;24.15;43.19;101578.81;5091954;28;20091;-72
2023/08/13 04:52:33;;;;;;;119.80;114.60;;;;;;;24.13;43.06;101581.06;5089925;28;20372;-72
2023/08/13 04:54:59;;;;;;;118.05;112.78;;;;;;;24.11;43.24;101566.75;5081646;28;20031;-72
2023/08/13 04:57:24;;;;;;;118.32;113.13;;;;;;;24.10;43.11;101567.09;5088944;28;20028;-71
2023/08/13 04:59:49;;;;;;;115.90;110.90;;;;;;;24.09;43.13;101565.44;5091387;28;20064;-71
2023/08/13 05:02:15;;;;;;;117.90;112.85;;;;;;;24.07;43.01;101563.00;5088888;28;20050;-71
2023/08/13 05:04:40;;;;;;;116.88;111.80;;;;;;;24.06;43.00;101569.66;5089243;28;20040;-72
2023/08/13 05:07:06;;;;;;;116.43;111.20;;;;;;;24.05;42.97;101568.03;5090185;28;20051;-73
2023/08/13 05:09:31;;;;;;;117.05;112.03;;;;;;;24.04;43.11;101573.84;5091081;28;20040;-71
2023/08/13 05:11:57;;;;;;;116.90;111.82;;;;;;;24.03;43.11;101564.75;5091104;28;20063;-73
2023/08/13 05:14:23;;;;;;;115.28;110.32;;;;;;;24.00;43.41;101576.44;5077034;28;20040;-72
2023/08/13 05:16:48;;;;;;;113.20;108.28;;;;;;;23.99;43.21;101574.81;5079476;28;20449;-72
2023/08/13 05:19:13;;;;;;;115.82;110.28;;;;;;;23.98;43.50;101573.97;5089932;28;20078;-70
2023/08/13 05:21:39;;;;;;;115.55;110.18;;;;;;;23.97;43.38;101566.84;5092300;28;20482;-71
2023/08/13 05:24:05;;;;;;;116.30;111.30;;;;;;;23.97;43.16;101575.13;5091643;28;20081;-72
2023/08/13 05:26:30;;;;;;;116.05;110.65;;;;;;;23.96;43.07;101580.94;5087721;28;20036;-72
2023/08/13 05:28:56;;;;;;;114.13;109.18;;;;;;;23.95;43.43;101573.81;5076387;28;20032;-72
2023/08/13 05:31:21;;;;;;;116.70;111.40;;;;;;;23.94;43.36;101575.75;5090565;28;20464;-70
2023/08/13 05:33:47;;;;;;;116.07;111.10;;;;;;;23.93;42.96;101571.34;5087756;28;20036;-73
2023/08/13 05:36:12;;;;;;;116.32;111.03;;;;;;;23.92;43.07;101574.44;5088995;28;20110;-72
2023/08/13 05:38:38;;;;;;;114.18;109.28;;;;;;;23.91;43.23;101570.03;5088693;28;20032;-72
2023/08/13 05:41:03;;;;;;;115.13;110.18;;;;;;;23.90;43.04;101576.69;5089352;28;20430;-73
2023/08/13 05:43:29;;;;;;;114.18;109.28;;;;;;;23.89;43.12;101578.63;5092899;28;20702;-71
2023/08/13 05:45:55;;;;;;;114.70;109.70;;;;;;;23.88;43.15;101576.97;5090961;28;20040;-72
2023/08/13 05:48:20;;;;;;;112.38;107.32;;;;;;;23.88;43.16;101576.97;5082440;28;20460;-71
2023/08/13 05:50:46;;;;;;;112.63;107.63;;;;;;;23.87;43.23;101569.03;5091035;28;20043;-71
2023/08/13 05:53:11;;;;;;;112.63;107.70;;;;;;;23.86;43.31;101572.91;5092513;28;20044;-72
2023/08/13 05:55:37;;;;;;;113.57;108.57;;;;;;;23.85;43.24;101576.81;5090857;28;20028;-71
2023/08/13 05:58:02;;;;;;;112.57;107.47;;;;;;;23.85;43.07;101582.31;5086941;28;20032;-74
2023/08/13 06:00:29;;;;;;;109.57;104.18;;;;;;;23.85;43.36;101587.84;5090809;28;20081;-73
2023/08/13 06:02:54;;;;;;;111.78;106.93;;;;;;;23.84;43.12;101581.50;5083636;28;20119;-73
2023/08/13 06:05:20;;;;;;;112.95;107.93;;;;;;;23.84;43.36;101577.91;5092815;28;20464;-72
2023/08/13 06:07:45;;;;;;;113.25;108.25;;;;;;;23.83;43.42;101576.28;5089331;28;20043;-73
2023/08/13 06:10:11;;;;;;;114.63;109.35;;;;;;;23.83;43.64;101584.56;5090777;28;20270;-71
2023/08/13 06:12:36;;;;;;;111.55;106.43;;;;;;;23.82;43.26;101578.25;5088938;28;20484;-72
2023/08/13 06:15:02;;;;;;;112.72;107.82;;;;;;;23.81;43.64;101586.81;5090261;28;20158;-72
2023/08/13 06:17:28;;;;;;;112.35;107.18;;;;;;;23.81;43.28;101581.31;5089683;28;20109;-71
2023/08/13 06:19:53;;;;;;;112.10;107.28;;;;;;;23.81;43.26;101586.81;5091377;28;20066;-72
2023/08/13 06:22:19;;;;;;;113.57;108.53;;;;;;;23.80;43.41;101579.69;5092841;28;20043;-72
2023/08/13 06:24:44;;;;;;;112.18;107.22;;;;;;;23.80;43.34;101585.19;5095077;28;20043;-71
2023/08/13 06:27:11;;;;;;;112.82;107.90;;;;;;;23.78;43.26;101580.00;5092165;28;20514;-73
2023/08/13 06:29:36;;;;;;;111.40;106.28;;;;;;;23.77;43.47;101586.66;5100021;28;20028;-71
2023/08/13 06:32:01;;;;;;;114.72;109.72;;;;;;;23.78;43.39;101590.22;5093680;28;20464;-73
2023/08/13 06:34:27;;;;;;;112.00;106.90;;;;;;;23.75;43.66;101586.94;5092256;28;20122;-70
2023/08/13 06:36:53;;;;;;;112.75;107.72;;;;;;;23.75;43.74;101588.91;5093001;28;20396;-71
2023/08/13 06:39:19;;;;;;;110.85;105.97;;;;;;;23.74;43.61;101588.09;5089707;28;20464;-71
2023/08/13 06:41:44;;;;;;;109.40;104.38;;;;;;;23.73;43.42;101586.44;5091734;28;20043;-73
2023/08/13 06:44:18;;;;;;;112.03;107.15;;;;;;;23.74;43.42;101596.34;5090909;28;20028;-72
2023/08/13 06:46:43;;;;;;;112.28;107.18;;;;;;;23.73;43.51;101585.63;5094000;28;20099;-72
2023/08/13 06:49:09;;;;;;;111.55;106.50;;;;;;;23.72;43.76;101587.56;5098948;28;20569;-72
2023/08/13 06:51:34;;;;;;;109.13;103.82;;;;;;;23.72;43.37;101590.34;5074253;28;20110;-74
2023/08/13 06:53:59;;;;;;;110.60;105.72;;;;;;;23.72;43.48;101592.25;5085540;28;20032;-71
2023/08/13 06:56:25;;;;;;;109.70;104.72;;;;;;;23.74;43.73;101590.03;5091116;28;20028;-74
2023/08/13 06:58:50;;;;;;;112.40;107.23;;;;;;;23.74;44.22;101585.31;5094192;28;20027;-73
2023/08/13 07:01:15;;;;;;;111.10;106.03;;;;;;;23.74;44.06;101595.56;5088900;28;20596;-71
2023/08/13 07:03:41;;;;;;;107.25;102.53;;;;;;;23.74;44.24;101585.31;5093087;28;20128;-73
2023/08/13 07:06:07;;;;;;;110.57;105.57;;;;;;;23.76;44.06;101590.50;5093159;28;20024;-73
2023/08/13 07:08:32;;;;;;;109.55;104.78;;;;;;;23.78;44.23;101590.22;5096901;28;20066;-72
2023/08/13 07:10:59;;;;;;;107.63;102.82;;;;;;;23.77;44.10;101594.91;5089029;28;20028;-73
2023/08/13 07:13:25;;;;;;;107.18;102.28;;;;;;;23.77;44.25;101585.84;5093565;28;20038;-75
2023/08/13 07:15:51;;;;;;;113.15;107.32;;;;;;;23.77;44.48;101591.34;5091116;28;22088;-73
2023/08/13 07:18:16;;;;;;;114.20;108.38;;;;;;;23.78;44.53;101593.78;5087433;28;20027;-71
2023/08/13 07:20:42;;;;;;;110.95;105.80;;;;;;;23.79;44.76;101592.66;5092807;28;20043;-71
2023/08/13 07:23:08;;;;;;;111.68;105.95;;;;;;;23.79;44.60;101589.91;5091892;28;20077;-73
2023/08/13 07:25:33;;;;;;;111.25;106.38;;;;;;;23.80;44.71;101590.72;5089269;28;20025;-71
2023/08/13 07:27:58;;;;;;;112.10;107.00;;;;;;;23.80;44.46;101585.19;5091298;28;20032;-72
2023/08/13 07:30:24;;;;;;;115.43;109.88;;;;;;;23.79;44.79;101575.28;5091355;28;20039;-72
2023/08/13 07:32:49;;;;;;;113.28;107.90;;;;;;;23.80;44.58;101579.69;5090959;28;20036;-72
2023/08/13 07:35:15;;;;;;;112.43;107.28;;;;;;;23.80;44.27;101580.50;5092569;28;20028;-71
2023/08/13 07:37:41;;;;;;;114.03;108.93;;;;;;;23.81;44.78;101576.59;5089868;28;20067;-70
2023/08/13 07:40:07;;;;;;;111.47;106.47;;;;;;;23.81;44.15;101587.63;5093402;28;20467;-72
2023/08/13 07:42:33;;;;;;;108.38;103.60;;;;;;;23.82;44.81;101588.47;5090591;28;20020;-70
2023/08/13 07:44:59;;;;;;;110.75;105.80;;;;;;;23.82;44.64;101578.25;5093191;28;20028;-71
2023/08/13 07:47:24;;;;;;;109.65;104.85;;;;;;;23.82;44.78;101577.44;5069496;28;20031;-68
2023/08/13 07:49:50;;;;;;;108.75;103.95;;;;;;;23.83;44.45;101573.53;5093133;28;20464;-71
2023/08/13 07:52:15;;;;;;;112.80;107.72;;;;;;;23.83;44.94;101568.03;5091656;28;20111;-70
2023/08/13 07:54:41;;;;;;;109.40;104.60;;;;;;;23.85;44.70;101582.31;5089449;28;20028;-72
2023/08/13 07:57:06;;;;;;;109.40;104.30;;;;;;;23.85;44.82;101579.56;5090696;28;20093;-71
2023/08/13 07:59:31;;;;;;;109.90;104.72;;;;;;;23.85;44.88;101574.84;5093134;28;20115;-72
2023/08/13 08:01:57;;;;;;;115.60;110.22;;;;;;;23.85;44.41;101572.09;5092046;28;20464;-70
2023/08/13 08:04:22;;;;;;;111.57;106.53;;;;;;;23.85;44.50;101574.84;5083804;28;20042;-72
2023/08/13 08:06:48;;;;;;;109.20;104.45;;;;;;;23.86;44.66;101567.38;5078914;28;20033;-71
2023/08/13 08:09:13;;;;;;;108.30;103.60;;;;;;;23.87;44.83;101572.59;5088972;28;20024;-71
2023/08/13 08:11:38;;;;;;;109.43;104.53;;;;;;;23.87;44.75;101577.31;5091798;28;20024;-72
2023/08/13 08:14:04;;;;;;;106.07;101.38;;;;;;;23.88;45.04;101576.97;5081036;28;20051;-70
2023/08/13 08:16:29;;;;;;;111.38;106.03;;;;;;;23.89;44.95;101577.78;5090316;28;20520;-72
2023/08/13 08:18:55;;;;;;;108.10;103.40;;;;;;;23.89;44.84;101581.38;5091907;28;20032;-73
2023/08/13 08:21:20;;;;;;;107.25;102.45;;;;;;;23.90;44.76;101583.00;5092321;28;20051;-70
2023/08/13 08:23:46;;;;;;;108.80;103.93;;;;;;;23.90;44.60;101582.19;5089323;28;20032;-70
2023/08/13 08:26:11;;;;;;;108.00;103.32;;;;;;;23.91;44.67;101579.13;5088955;28;20059;-72
2023/08/13 08:28:36;;;;;;;108.30;103.32;;;;;;;23.91;44.80;101586.56;5090825;28;20111;-72
2023/08/13 08:31:02;;;;;;;107.63;102.95;;;;;;;23.93;45.00;101582.38;5092358;28;20036;-70
2023/08/13 08:33:27;;;;;;;109.70;104.50;;;;;;;23.93;44.96;101574.09;5084731;28;20058;-71
2023/08/13 08:35:53;;;;;;;108.00;103.20;;;;;;;23.94;44.96;101574.94;5081789;28;20383;-70
2023/08/13 08:38:18;;;;;;;109.20;104.30;;;;;;;23.95;45.15;101565.53;5082243;28;20028;-72
2023/08/13 08:40:46;;;;;;;108.00;103.00;;;;;;;23.95;44.74;101574.59;5089204;28;20028;-70
2023/08/13 08:43:13;;;;;;;108.40;103.72;;;;;;;23.97;44.71;101571.56;5091042;28;20032;-72
2023/08/13 08:45:39;;;;;;;109.28;104.45;;;;;;;23.98;45.13;101564.88;5090808;28;20032;-72
2023/08/13 08:48:06;;;;;;;109.60;104.35;;;;;;;24.00;44.71;101570.91;5084134;28;20070;-72
2023/08/13 08:50:33;;;;;;;109.57;104.78;;;;;;;24.01;45.21;101569.78;5091397;28;20119;-71
2023/08/13 08:52:58;;;;;;;110.57;105.53;;;;;;;24.02;44.96;101567.84;5084279;28;20070;-71
2023/08/13 08:55:24;;;;;;;111.93;106.93;;;;;;;24.03;44.85;101575.00;5084901;28;20028;-72
2023/08/13 08:57:49;;;;;;;109.38;104.55;;;;;;;24.04;45.26;101569.16;5089026;28;20028;-72
2023/08/13 09:00:16;;;;;;;109.47;104.57;;;;;;;24.07;45.34;101557.50;5091395;28;20020;-71
2023/08/13 09:02:43;;;;;;;109.78;104.82;;;;;;;24.07;44.80;101564.97;5089562;28;20048;-70
2023/08/13 09:05:09;;;;;;;112.40;107.47;;;;;;;24.08;45.08;101563.81;5091912;28;20032;-70
2023/08/13 09:07:34;;;;;;;115.75;109.93;;;;;;;24.09;45.26;101555.25;5089311;28;20466;-70
2023/08/13 09:10:04;;;;;;;110.55;105.75;;;;;;;24.10;45.41;101548.56;5085643;28;20028;-71
2023/08/13 09:12:37;;;;;;;110.50;105.55;;;;;;;24.12;45.32;101556.56;5090732;28;20463;-70
2023/08/13 09:15:05;;;;;;;110.65;105.55;;;;;;;24.14;45.34;101548.75;5090709;28;20070;-70
2023/08/13 09:17:30;;;;;;;110.47;105.50;;;;;;;24.14;45.31;101549.59;5090585;28;20028;-73
2023/08/13 09:19:56;;;;;;;109.38;104.40;;;;;;;24.17;45.19;101550.91;5074432;28;20039;-71
2023/08/13 09:22:21;;;;;;;106.53;101.90;;;;;;;24.17;45.33;101546.19;5087137;28;20456;-71
2023/08/13 09:24:48;;;;;;;113.80;108.63;;;;;;;24.19;45.21;101556.91;5090838;28;20046;-73
2023/08/13 09:27:14;;;;;;;113.60;108.57;;;;;;;24.21;45.17;101546.38;5090170;28;20207;-71
2023/08/13 09:29:41;;;;;;;112.10;107.13;;;;;;;24.23;45.30;101540.53;5088872;28;20036;-71
2023/08/13 09:32:06;;;;;;;112.25;107.15;;;;;;;24.25;45.29;101527.25;5091034;28;20028;-71
2023/08/13 09:34:35;;;;;;;118.53;113.00;;;;;;;24.26;45.32;101532.44;5089869;28;20369;-72
2023/08/13 09:37:01;;;;;;;115.53;110.25;;;;;;;24.28;45.30;101524.66;5090005;28;20047;-71
2023/08/13 09:39:29;;;;;;;113.18;108.10;;;;;;;24.31;45.25;101534.25;5087128;28;20067;-72
2023/08/13 09:41:55;;;;;;;111.60;106.68;;;;;;;24.32;45.24;101530.38;5091678;28;20032;-71
2023/08/13 09:44:25;;;;;;;113.63;108.55;;;;;;;24.34;45.36;101523.41;5089702;28;20456;-71
2023/08/13 09:46:58;;;;;;;112.03;107.18;;;;;;;24.37;45.34;101530.22;5091504;28;20118;-71
2023/08/13 09:49:27;;;;;;;111.63;106.68;;;;;;;24.38;45.34;101527.13;5075456;28;20032;-71
2023/08/13 09:51:54;;;;;;;110.95;105.75;;;;;;;24.40;45.38;101516.59;5088440;28;20077;-71
2023/08/13 09:54:27;;;;;;;114.05;108.97;;;;;;;24.43;45.45;101519.84;5105653;28;20063;-71
2023/08/13 09:57:02;;;;;;;111.70;106.50;;;;;;;24.46;45.76;101520.06;5094103;28;20088;-73
2023/08/13 09:59:27;;;;;;;111.38;106.38;;;;;;;24.49;45.50;101513.09;5089821;28;20016;-71
2023/08/13 10:01:54;;;;;;;113.55;108.43;;;;;;;24.51;45.84;101508.88;5092117;28;20071;-72
2023/08/13 10:04:21;;;;;;;113.28;107.97;;;;;;;24.55;45.38;101511.81;5093745;28;20097;-71
2023/08/13 10:06:50;;;;;;;116.10;110.80;;;;;;;24.57;45.74;101507.59;5093917;28;20044;-71
2023/08/13 10:09:15;;;;;;;;;;;;;;;24.54;45.70;101502.69;5094130;28;20031;-72
2023/08/13 10:11:41;;;;;;;112.85;107.82;;;;;;;24.59;45.63;101510.88;5093728;28;19999;-71
2023/08/13 10:14:07;;;;;;;113.05;108.05;;;;;;;24.62;45.74;101503.91;5090769;28;20145;-71
2023/08/13 10:16:33;;;;;;;115.00;109.60;;;;;;;24.64;45.56;101509.88;5094502;28;20088;-71
2023/08/13 10:19:00;;;;;;;112.05;107.07;;;;;;;24.68;45.86;101507.31;5093419;28;20106;-72
2023/08/13 10:21:36;;;;;;;112.50;107.53;;;;;;;24.70;46.05;101508.63;5091554;28;20464;-70
2023/08/13 10:24:10;;;;;;;117.57;112.20;;;;;;;24.74;45.79;101506.03;5077568;28;20052;-71
2023/08/13 10:26:36;;;;;;;116.00;110.90;;;;;;;24.75;45.96;101497.44;5093743;28;20468;-72
2023/08/13 10:29:20;;;;;;;116.15;111.05;;;;;;;24.79;46.07;101503.94;5093264;28;20031;-71
2023/08/13 10:31:58;;;;;;;116.22;111.13;;;;;;;24.83;45.86;101501.34;5093819;28;20444;-72
2023/08/13 10:34:50;;;;;;;114.88;109.85;;;;;;;24.85;46.11;101499.09;5088440;28;20074;-71
2023/08/13 10:37:17;;;;;;;119.57;114.38;;;;;;;24.90;46.17;101492.59;5092838;28;20157;-69
2023/08/13 10:39:45;;;;;;;117.55;112.35;;;;;;;24.93;46.07;101495.53;5094127;28;20036;-71
2023/08/13 10:42:29;;;;;;;117.85;112.60;;;;;;;24.96;46.47;101488.53;5093462;28;20391;-72
2023/08/13 10:45:03;;;;;;;116.18;110.97;;;;;;;25.00;46.06;101484.00;5086018;28;20020;-71
2023/08/13 10:47:50;;;;;;;116.43;111.13;;;;;;;25.02;46.08;101479.78;5093326;28;20039;-71
2023/08/13 10:50:18;;;;;;;121.80;116.53;;;;;;;25.07;46.12;101489.84;5094564;28;20024;-71
2023/08/13 10:52:47;;;;;;;119.55;113.97;;;;;;;25.10;46.25;101483.69;5093641;28;20035;-71